sensor_id;sensor_type;location;lat;lon;timestamp;P1;durP1;ratioP1;P2;durP2;ratioP2
19183;SDS011;9724;51.194;6.856;2023-02-11T00:01:16;47.10;;;21.67;;
19183;SDS011;9724;51.194;6.856;2023-02-11T00:03:45;52.87;;;21.60;;
19183;SDS011;9724;51.194;6.856;2023-02-11T00:06:11;47.53;;;20.73;;
19183;SDS011;9724;51.194;6.856;2023-02-11T00:08:38;44.07;;;20.90;;
19183;SDS011;9724;51.194;6.856;2023-02-11T00:11:04;42.30;;;20.07;;
19183;SDS011;9724;51.194;6.856;2023-02-11T00:13:31;47.27;;;21.53;;
19183;SDS011;9724;51.194;6.856;2023-02-11T00:15:57;42.80;;;20.73;;
19183;SDS011;9724;51.194;6.856;2023-02-11T00:18:23;46.60;;;20.97;;
19183;SDS011;9724;51.194;6.856;2023-02-11T00:20:49;42.03;;;20.37;;
19183;SDS011;9724;51.194;6.856;2023-02-11T00:23:16;43.13;;;21.87;;
19183;SDS011;9724;51.194;6.856;2023-02-11T00:25:43;42.00;;;20.87;;
19183;SDS011;9724;51.194;6.856;2023-02-11T00:28:10;38.30;;;20.00;;
19183;SDS011;9724;51.194;6.856;2023-02-11T00:30:36;42.10;;;19.90;;
19183;SDS011;9724;51.194;6.856;2023-02-11T00:33:03;37.40;;;19.93;;
19183;SDS011;9724;51.194;6.856;2023-02-11T00:35:29;42.97;;;20.73;;
19183;SDS011;9724;51.194;6.856;2023-02-11T00:37:55;39.30;;;19.73;;
19183;SDS011;9724;51.194;6.856;2023-02-11T00:40:21;36.93;;;19.63;;
19183;SDS011;9724;51.194;6.856;2023-02-11T00:42:48;41.70;;;19.53;;
19183;SDS011;9724;51.194;6.856;2023-02-11T00:45:15;42.50;;;20.57;;
19183;SDS011;9724;51.194;6.856;2023-02-11T00:47:41;44.57;;;19.47;;
19183;SDS011;9724;51.194;6.856;2023-02-11T00:50:07;41.03;;;20.90;;
19183;SDS011;9724;51.194;6.856;2023-02-11T00:52:34;41.63;;;18.77;;
19183;SDS011;9724;51.194;6.856;2023-02-11T00:55:00;37.63;;;18.97;;
19183;SDS011;9724;51.194;6.856;2023-02-11T00:57:26;43.90;;;19.27;;
19183;SDS011;9724;51.194;6.856;2023-02-11T00:59:53;32.83;;;18.47;;
19183;SDS011;9724;51.194;6.856;2023-02-11T01:02:20;38.97;;;19.73;;
19183;SDS011;9724;51.194;6.856;2023-02-11T01:04:46;41.10;;;20.20;;
19183;SDS011;9724;51.194;6.856;2023-02-11T01:07:12;36.70;;;19.67;;
19183;SDS011;9724;51.194;6.856;2023-02-11T01:09:38;41.53;;;19.07;;
19183;SDS011;9724;51.194;6.856;2023-02-11T01:12:05;39.13;;;19.93;;
19183;SDS011;9724;51.194;6.856;2023-02-11T01:14:31;37.90;;;20.10;;
19183;SDS011;9724;51.194;6.856;2023-02-11T01:16:58;40.50;;;19.33;;
19183;SDS011;9724;51.194;6.856;2023-02-11T01:19:24;40.90;;;19.63;;
19183;SDS011;9724;51.194;6.856;2023-02-11T01:21:50;44.17;;;20.47;;
19183;SDS011;9724;51.194;6.856;2023-02-11T01:24:16;42.63;;;19.23;;
19183;SDS011;9724;51.194;6.856;2023-02-11T01:26:42;38.07;;;19.07;;
19183;SDS011;9724;51.194;6.856;2023-02-11T01:29:08;38.37;;;19.67;;
19183;SDS011;9724;51.194;6.856;2023-02-11T01:31:35;39.10;;;19.40;;
19183;SDS011;9724;51.194;6.856;2023-02-11T01:34:02;41.47;;;20.10;;
19183;SDS011;9724;51.194;6.856;2023-02-11T01:36:28;38.43;;;18.63;;
19183;SDS011;9724;51.194;6.856;2023-02-11T01:38:54;36.80;;;18.90;;
19183;SDS011;9724;51.194;6.856;2023-02-11T01:41:20;41.80;;;19.30;;
19183;SDS011;9724;51.194;6.856;2023-02-11T01:43:47;36.53;;;19.17;;
19183;SDS011;9724;51.194;6.856;2023-02-11T01:46:23;37.43;;;19.07;;
19183;SDS011;9724;51.194;6.856;2023-02-11T01:48:56;36.30;;;19.10;;
19183;SDS011;9724;51.194;6.856;2023-02-11T01:51:28;40.20;;;19.90;;
19183;SDS011;9724;51.194;6.856;2023-02-11T01:53:56;37.90;;;19.60;;
19183;SDS011;9724;51.194;6.856;2023-02-11T01:56:44;36.73;;;19.57;;
19183;SDS011;9724;51.194;6.856;2023-02-11T01:59:31;40.47;;;20.17;;
19183;SDS011;9724;51.194;6.856;2023-02-11T02:02:02;38.27;;;19.17;;
19183;SDS011;9724;51.194;6.856;2023-02-11T02:04:32;45.30;;;20.73;;
19183;SDS011;9724;51.194;6.856;2023-02-11T02:07:01;41.90;;;20.00;;
19183;SDS011;9724;51.194;6.856;2023-02-11T02:09:31;38.10;;;20.03;;
19183;SDS011;9724;51.194;6.856;2023-02-11T02:12:02;37.63;;;19.90;;
19183;SDS011;9724;51.194;6.856;2023-02-11T02:14:28;45.40;;;19.87;;
19183;SDS011;9724;51.194;6.856;2023-02-11T02:16:54;41.80;;;20.30;;
19183;SDS011;9724;51.194;6.856;2023-02-11T02:19:30;40.83;;;20.80;;
19183;SDS011;9724;51.194;6.856;2023-02-11T02:22:28;41.80;;;20.07;;
19183;SDS011;9724;51.194;6.856;2023-02-11T02:25:12;40.27;;;19.60;;
19183;SDS011;9724;51.194;6.856;2023-02-11T02:27:48;47.57;;;21.67;;
19183;SDS011;9724;51.194;6.856;2023-02-11T02:33:20;42.80;;;21.50;;
19183;SDS011;9724;51.194;6.856;2023-02-11T02:35:52;43.53;;;20.10;;
19183;SDS011;9724;51.194;6.856;2023-02-11T02:38:26;45.60;;;21.40;;
19183;SDS011;9724;51.194;6.856;2023-02-11T02:40:55;41.07;;;20.17;;
19183;SDS011;9724;51.194;6.856;2023-02-11T02:43:24;44.20;;;20.87;;
19183;SDS011;9724;51.194;6.856;2023-02-11T02:45:51;40.40;;;20.37;;
19183;SDS011;9724;51.194;6.856;2023-02-11T02:48:25;38.77;;;19.97;;
19183;SDS011;9724;51.194;6.856;2023-02-11T02:50:52;41.87;;;19.33;;
19183;SDS011;9724;51.194;6.856;2023-02-11T02:53:25;42.53;;;19.83;;
19183;SDS011;9724;51.194;6.856;2023-02-11T02:55:59;40.23;;;19.23;;
19183;SDS011;9724;51.194;6.856;2023-02-11T02:58:41;40.10;;;19.47;;
19183;SDS011;9724;51.194;6.856;2023-02-11T03:01:16;40.00;;;19.77;;
19183;SDS011;9724;51.194;6.856;2023-02-11T03:03:47;48.23;;;20.53;;
19183;SDS011;9724;51.194;6.856;2023-02-11T03:06:20;40.00;;;19.23;;
19183;SDS011;9724;51.194;6.856;2023-02-11T03:08:50;40.60;;;19.87;;
19183;SDS011;9724;51.194;6.856;2023-02-11T03:11:19;38.63;;;20.07;;
19183;SDS011;9724;51.194;6.856;2023-02-11T03:13:46;38.67;;;20.07;;
19183;SDS011;9724;51.194;6.856;2023-02-11T03:16:14;39.60;;;20.10;;
19183;SDS011;9724;51.194;6.856;2023-02-11T03:18:44;38.27;;;19.03;;
19183;SDS011;9724;51.194;6.856;2023-02-11T03:21:14;40.30;;;19.53;;
19183;SDS011;9724;51.194;6.856;2023-02-11T03:23:43;36.50;;;19.40;;
19183;SDS011;9724;51.194;6.856;2023-02-11T03:26:15;40.53;;;19.53;;
19183;SDS011;9724;51.194;6.856;2023-02-11T03:28:44;41.07;;;19.00;;
19183;SDS011;9724;51.194;6.856;2023-02-11T03:31:16;44.57;;;19.83;;
19183;SDS011;9724;51.194;6.856;2023-02-11T03:33:49;37.00;;;18.60;;
19183;SDS011;9724;51.194;6.856;2023-02-11T03:36:20;32.27;;;17.47;;
19183;SDS011;9724;51.194;6.856;2023-02-11T03:38:49;39.27;;;18.67;;
19183;SDS011;9724;51.194;6.856;2023-02-11T03:41:19;38.17;;;17.73;;
19183;SDS011;9724;51.194;6.856;2023-02-11T03:43:47;36.80;;;18.17;;
19183;SDS011;9724;51.194;6.856;2023-02-11T03:46:16;32.63;;;17.90;;
19183;SDS011;9724;51.194;6.856;2023-02-11T03:48:43;41.77;;;18.80;;
19183;SDS011;9724;51.194;6.856;2023-02-11T03:51:12;38.57;;;17.57;;
19183;SDS011;9724;51.194;6.856;2023-02-11T03:53:40;43.07;;;18.43;;
19183;SDS011;9724;51.194;6.856;2023-02-11T03:56:09;32.13;;;17.63;;
19183;SDS011;9724;51.194;6.856;2023-02-11T03:58:37;40.87;;;18.63;;
19183;SDS011;9724;51.194;6.856;2023-02-11T04:01:04;39.70;;;17.73;;
19183;SDS011;9724;51.194;6.856;2023-02-11T04:03:34;41.93;;;18.63;;
19183;SDS011;9724;51.194;6.856;2023-02-11T04:06:00;41.67;;;17.90;;
19183;SDS011;9724;51.194;6.856;2023-02-11T04:08:26;46.37;;;17.80;;
19183;SDS011;9724;51.194;6.856;2023-02-11T04:10:53;37.73;;;18.60;;
19183;SDS011;9724;51.194;6.856;2023-02-11T04:13:21;34.80;;;17.23;;
19183;SDS011;9724;51.194;6.856;2023-02-11T04:15:48;37.40;;;17.53;;
19183;SDS011;9724;51.194;6.856;2023-02-11T04:18:14;45.87;;;18.37;;
19183;SDS011;9724;51.194;6.856;2023-02-11T04:20:41;39.33;;;17.53;;
19183;SDS011;9724;51.194;6.856;2023-02-11T04:23:07;38.13;;;17.23;;
19183;SDS011;9724;51.194;6.856;2023-02-11T04:25:34;41.83;;;16.93;;
19183;SDS011;9724;51.194;6.856;2023-02-11T04:28:01;42.57;;;16.80;;
19183;SDS011;9724;51.194;6.856;2023-02-11T04:30:27;41.73;;;18.00;;
19183;SDS011;9724;51.194;6.856;2023-02-11T04:32:53;38.80;;;17.63;;
19183;SDS011;9724;51.194;6.856;2023-02-11T04:35:20;38.27;;;17.90;;
19183;SDS011;9724;51.194;6.856;2023-02-11T04:37:46;36.03;;;16.90;;
19183;SDS011;9724;51.194;6.856;2023-02-11T04:40:12;35.50;;;16.20;;
19183;SDS011;9724;51.194;6.856;2023-02-11T04:42:38;43.83;;;17.00;;
19183;SDS011;9724;51.194;6.856;2023-02-11T04:45:05;45.43;;;17.90;;
19183;SDS011;9724;51.194;6.856;2023-02-11T04:47:32;41.07;;;17.10;;
19183;SDS011;9724;51.194;6.856;2023-02-11T04:49:58;36.40;;;16.77;;
19183;SDS011;9724;51.194;6.856;2023-02-11T04:52:25;44.60;;;17.43;;
19183;SDS011;9724;51.194;6.856;2023-02-11T04:54:51;41.30;;;17.67;;
19183;SDS011;9724;51.194;6.856;2023-02-11T04:57:17;39.90;;;17.57;;
19183;SDS011;9724;51.194;6.856;2023-02-11T04:59:43;43.50;;;16.97;;
19183;SDS011;9724;51.194;6.856;2023-02-11T05:02:10;42.43;;;18.43;;
19183;SDS011;9724;51.194;6.856;2023-02-11T05:04:36;36.57;;;17.20;;
19183;SDS011;9724;51.194;6.856;2023-02-11T05:07:02;40.93;;;17.33;;
19183;SDS011;9724;51.194;6.856;2023-02-11T05:09:28;46.43;;;16.67;;
19183;SDS011;9724;51.194;6.856;2023-02-11T05:11:54;40.93;;;17.27;;
19183;SDS011;9724;51.194;6.856;2023-02-11T05:14:21;46.47;;;17.10;;
19183;SDS011;9724;51.194;6.856;2023-02-11T05:16:47;44.00;;;16.60;;
19183;SDS011;9724;51.194;6.856;2023-02-11T05:19:14;42.50;;;16.83;;
19183;SDS011;9724;51.194;6.856;2023-02-11T05:21:40;42.17;;;17.83;;
19183;SDS011;9724;51.194;6.856;2023-02-11T05:24:25;51.53;;;17.67;;
19183;SDS011;9724;51.194;6.856;2023-02-11T05:26:51;40.90;;;17.87;;
19183;SDS011;9724;51.194;6.856;2023-02-11T05:29:17;38.90;;;17.73;;
19183;SDS011;9724;51.194;6.856;2023-02-11T05:31:44;44.10;;;17.40;;
19183;SDS011;9724;51.194;6.856;2023-02-11T05:34:10;40.37;;;17.30;;
19183;SDS011;9724;51.194;6.856;2023-02-11T05:36:37;49.67;;;18.00;;
19183;SDS011;9724;51.194;6.856;2023-02-11T05:39:03;47.37;;;18.90;;
19183;SDS011;9724;51.194;6.856;2023-02-11T05:41:29;40.57;;;17.80;;
19183;SDS011;9724;51.194;6.856;2023-02-11T05:43:56;42.43;;;17.97;;
19183;SDS011;9724;51.194;6.856;2023-02-11T05:46:22;40.80;;;18.67;;
19183;SDS011;9724;51.194;6.856;2023-02-11T05:48:48;46.23;;;18.27;;
19183;SDS011;9724;51.194;6.856;2023-02-11T05:51:14;40.97;;;17.63;;
19183;SDS011;9724;51.194;6.856;2023-02-11T05:53:41;42.97;;;18.73;;
19183;SDS011;9724;51.194;6.856;2023-02-11T05:56:07;51.03;;;18.63;;
19183;SDS011;9724;51.194;6.856;2023-02-11T05:58:34;42.37;;;19.07;;
19183;SDS011;9724;51.194;6.856;2023-02-11T06:01:00;45.67;;;19.20;;
19183;SDS011;9724;51.194;6.856;2023-02-11T06:03:27;51.50;;;18.60;;
19183;SDS011;9724;51.194;6.856;2023-02-11T06:05:53;44.13;;;19.67;;
19183;SDS011;9724;51.194;6.856;2023-02-11T06:08:19;43.77;;;19.67;;
19183;SDS011;9724;51.194;6.856;2023-02-11T06:10:46;43.67;;;20.90;;
19183;SDS011;9724;51.194;6.856;2023-02-11T06:13:12;50.50;;;20.67;;
19183;SDS011;9724;51.194;6.856;2023-02-11T06:15:38;50.60;;;20.30;;
19183;SDS011;9724;51.194;6.856;2023-02-11T06:18:06;45.70;;;19.30;;
19183;SDS011;9724;51.194;6.856;2023-02-11T06:20:32;55.23;;;21.17;;
19183;SDS011;9724;51.194;6.856;2023-02-11T06:22:58;47.70;;;21.17;;
19183;SDS011;9724;51.194;6.856;2023-02-11T06:25:25;54.33;;;22.10;;
19183;SDS011;9724;51.194;6.856;2023-02-11T06:27:52;52.37;;;21.13;;
19183;SDS011;9724;51.194;6.856;2023-02-11T06:30:18;57.40;;;22.23;;
19183;SDS011;9724;51.194;6.856;2023-02-11T06:32:44;61.63;;;23.07;;
19183;SDS011;9724;51.194;6.856;2023-02-11T06:35:11;49.50;;;20.53;;
19183;SDS011;9724;51.194;6.856;2023-02-11T06:37:38;63.13;;;23.10;;
19183;SDS011;9724;51.194;6.856;2023-02-11T06:40:04;63.07;;;22.67;;
19183;SDS011;9724;51.194;6.856;2023-02-11T06:42:31;55.20;;;22.97;;
19183;SDS011;9724;51.194;6.856;2023-02-11T06:44:58;58.10;;;22.30;;
19183;SDS011;9724;51.194;6.856;2023-02-11T06:47:24;54.90;;;22.53;;
19183;SDS011;9724;51.194;6.856;2023-02-11T06:49:50;55.27;;;23.77;;
19183;SDS011;9724;51.194;6.856;2023-02-11T06:52:16;59.73;;;23.60;;
19183;SDS011;9724;51.194;6.856;2023-02-11T06:54:42;56.13;;;23.47;;
19183;SDS011;9724;51.194;6.856;2023-02-11T06:57:08;71.67;;;24.53;;
19183;SDS011;9724;51.194;6.856;2023-02-11T06:59:35;67.90;;;25.73;;
19183;SDS011;9724;51.194;6.856;2023-02-11T07:02:01;66.53;;;23.90;;
19183;SDS011;9724;51.194;6.856;2023-02-11T07:04:28;64.97;;;24.17;;
19183;SDS011;9724;51.194;6.856;2023-02-11T07:06:54;57.47;;;22.83;;
19183;SDS011;9724;51.194;6.856;2023-02-11T07:09:20;55.20;;;24.13;;
19183;SDS011;9724;51.194;6.856;2023-02-11T07:11:46;58.27;;;24.40;;
19183;SDS011;9724;51.194;6.856;2023-02-11T07:14:13;53.43;;;23.10;;
19183;SDS011;9724;51.194;6.856;2023-02-11T07:16:39;64.63;;;24.90;;
19183;SDS011;9724;51.194;6.856;2023-02-11T07:19:06;63.37;;;25.03;;
19183;SDS011;9724;51.194;6.856;2023-02-11T07:21:32;54.47;;;24.60;;
19183;SDS011;9724;51.194;6.856;2023-02-11T07:23:58;61.57;;;25.43;;
19183;SDS011;9724;51.194;6.856;2023-02-11T07:26:24;62.07;;;24.97;;
19183;SDS011;9724;51.194;6.856;2023-02-11T07:28:51;53.63;;;23.43;;
19183;SDS011;9724;51.194;6.856;2023-02-11T07:31:18;64.20;;;24.93;;
19183;SDS011;9724;51.194;6.856;2023-02-11T07:33:45;62.97;;;24.00;;
19183;SDS011;9724;51.194;6.856;2023-02-11T07:36:13;64.07;;;24.20;;
19183;SDS011;9724;51.194;6.856;2023-02-11T07:38:39;62.83;;;23.70;;
19183;SDS011;9724;51.194;6.856;2023-02-11T07:41:06;63.47;;;23.23;;
19183;SDS011;9724;51.194;6.856;2023-02-11T07:43:35;62.33;;;24.77;;
19183;SDS011;9724;51.194;6.856;2023-02-11T07:46:02;64.60;;;26.00;;
19183;SDS011;9724;51.194;6.856;2023-02-11T07:48:28;60.37;;;24.37;;
19183;SDS011;9724;51.194;6.856;2023-02-11T07:50:54;66.20;;;25.53;;
19183;SDS011;9724;51.194;6.856;2023-02-11T07:53:21;73.40;;;24.57;;
19183;SDS011;9724;51.194;6.856;2023-02-11T07:55:48;61.80;;;24.17;;
19183;SDS011;9724;51.194;6.856;2023-02-11T07:58:14;73.40;;;24.47;;
19183;SDS011;9724;51.194;6.856;2023-02-11T08:00:41;66.63;;;24.67;;
19183;SDS011;9724;51.194;6.856;2023-02-11T08:03:07;63.80;;;24.67;;
19183;SDS011;9724;51.194;6.856;2023-02-11T08:05:36;55.37;;;24.30;;
19183;SDS011;9724;51.194;6.856;2023-02-11T08:08:02;62.53;;;24.40;;
19183;SDS011;9724;51.194;6.856;2023-02-11T08:10:29;65.07;;;24.57;;
19183;SDS011;9724;51.194;6.856;2023-02-11T08:12:56;68.37;;;24.53;;
19183;SDS011;9724;51.194;6.856;2023-02-11T08:15:22;62.20;;;23.90;;
19183;SDS011;9724;51.194;6.856;2023-02-11T08:17:48;67.57;;;24.73;;
19183;SDS011;9724;51.194;6.856;2023-02-11T08:20:14;73.47;;;24.97;;
19183;SDS011;9724;51.194;6.856;2023-02-11T08:22:41;62.70;;;24.03;;
19183;SDS011;9724;51.194;6.856;2023-02-11T08:25:07;65.60;;;25.33;;
19183;SDS011;9724;51.194;6.856;2023-02-11T08:27:34;70.67;;;25.10;;
19183;SDS011;9724;51.194;6.856;2023-02-11T08:30:00;71.47;;;25.50;;
19183;SDS011;9724;51.194;6.856;2023-02-11T08:32:26;60.00;;;24.17;;
19183;SDS011;9724;51.194;6.856;2023-02-11T08:34:52;63.87;;;24.63;;
19183;SDS011;9724;51.194;6.856;2023-02-11T08:37:18;66.83;;;25.30;;
19183;SDS011;9724;51.194;6.856;2023-02-11T08:39:45;68.57;;;24.80;;
19183;SDS011;9724;51.194;6.856;2023-02-11T08:42:11;66.00;;;25.60;;
19183;SDS011;9724;51.194;6.856;2023-02-11T08:44:39;67.37;;;26.40;;
19183;SDS011;9724;51.194;6.856;2023-02-11T08:47:05;80.47;;;26.07;;
19183;SDS011;9724;51.194;6.856;2023-02-11T08:49:31;75.27;;;26.60;;
19183;SDS011;9724;51.194;6.856;2023-02-11T08:51:58;72.00;;;26.80;;
19183;SDS011;9724;51.194;6.856;2023-02-11T08:54:28;97.13;;;27.77;;
19183;SDS011;9724;51.194;6.856;2023-02-11T08:56:54;75.90;;;26.23;;
19183;SDS011;9724;51.194;6.856;2023-02-11T08:59:20;76.37;;;27.07;;
19183;SDS011;9724;51.194;6.856;2023-02-11T09:01:47;81.37;;;27.13;;
19183;SDS011;9724;51.194;6.856;2023-02-11T09:04:14;75.97;;;27.40;;
19183;SDS011;9724;51.194;6.856;2023-02-11T09:06:41;72.73;;;26.80;;
19183;SDS011;9724;51.194;6.856;2023-02-11T09:09:09;68.93;;;26.43;;
19183;SDS011;9724;51.194;6.856;2023-02-11T09:11:38;80.63;;;27.07;;
19183;SDS011;9724;51.194;6.856;2023-02-11T09:14:05;84.13;;;28.60;;
19183;SDS011;9724;51.194;6.856;2023-02-11T09:16:32;69.07;;;25.63;;
19183;SDS011;9724;51.194;6.856;2023-02-11T09:19:02;85.83;;;29.07;;
19183;SDS011;9724;51.194;6.856;2023-02-11T09:21:29;74.37;;;27.53;;
19183;SDS011;9724;51.194;6.856;2023-02-11T09:23:55;79.10;;;28.40;;
19183;SDS011;9724;51.194;6.856;2023-02-11T09:26:22;76.07;;;27.63;;
19183;SDS011;9724;51.194;6.856;2023-02-11T09:28:49;85.47;;;27.67;;
19183;SDS011;9724;51.194;6.856;2023-02-11T09:31:17;88.57;;;28.30;;
19183;SDS011;9724;51.194;6.856;2023-02-11T09:33:46;78.43;;;29.27;;
19183;SDS011;9724;51.194;6.856;2023-02-11T09:36:14;84.20;;;29.87;;
19183;SDS011;9724;51.194;6.856;2023-02-11T09:38:42;73.47;;;28.47;;
19183;SDS011;9724;51.194;6.856;2023-02-11T09:41:16;84.77;;;29.03;;
19183;SDS011;9724;51.194;6.856;2023-02-11T09:43:52;80.87;;;28.30;;
19183;SDS011;9724;51.194;6.856;2023-02-11T09:46:19;87.93;;;28.70;;
19183;SDS011;9724;51.194;6.856;2023-02-11T09:48:46;79.67;;;29.03;;
19183;SDS011;9724;51.194;6.856;2023-02-11T09:51:15;85.60;;;29.10;;
19183;SDS011;9724;51.194;6.856;2023-02-11T09:53:44;89.47;;;29.97;;
19183;SDS011;9724;51.194;6.856;2023-02-11T09:56:13;79.47;;;28.00;;
19183;SDS011;9724;51.194;6.856;2023-02-11T09:58:40;78.83;;;29.10;;
19183;SDS011;9724;51.194;6.856;2023-02-11T10:01:11;88.90;;;28.73;;
19183;SDS011;9724;51.194;6.856;2023-02-11T10:03:50;71.33;;;28.93;;
19183;SDS011;9724;51.194;6.856;2023-02-11T10:06:27;84.47;;;29.97;;
19183;SDS011;9724;51.194;6.856;2023-02-11T10:09:12;77.23;;;28.40;;
19183;SDS011;9724;51.194;6.856;2023-02-11T10:11:48;84.10;;;29.20;;
19183;SDS011;9724;51.194;6.856;2023-02-11T10:14:23;86.63;;;29.17;;
19183;SDS011;9724;51.194;6.856;2023-02-11T10:16:57;88.43;;;29.70;;
19183;SDS011;9724;51.194;6.856;2023-02-11T10:19:31;96.93;;;30.43;;
19183;SDS011;9724;51.194;6.856;2023-02-11T10:22:07;79.43;;;29.27;;
19183;SDS011;9724;51.194;6.856;2023-02-11T10:24:35;88.83;;;30.07;;
19183;SDS011;9724;51.194;6.856;2023-02-11T10:27:03;92.63;;;30.73;;
19183;SDS011;9724;51.194;6.856;2023-02-11T10:29:34;88.67;;;30.53;;
19183;SDS011;9724;51.194;6.856;2023-02-11T10:32:04;95.27;;;30.80;;
19183;SDS011;9724;51.194;6.856;2023-02-11T10:34:32;87.33;;;31.37;;
19183;SDS011;9724;51.194;6.856;2023-02-11T10:36:58;86.50;;;30.63;;
19183;SDS011;9724;51.194;6.856;2023-02-11T10:39:25;74.57;;;28.97;;
19183;SDS011;9724;51.194;6.856;2023-02-11T10:41:52;84.30;;;29.50;;
19183;SDS011;9724;51.194;6.856;2023-02-11T10:44:21;83.57;;;29.57;;
19183;SDS011;9724;51.194;6.856;2023-02-11T10:46:49;85.27;;;32.13;;
19183;SDS011;9724;51.194;6.856;2023-02-11T10:52:11;89.10;;;29.23;;
19183;SDS011;9724;51.194;6.856;2023-02-11T10:54:39;88.47;;;30.47;;
19183;SDS011;9724;51.194;6.856;2023-02-11T10:57:05;79.40;;;29.53;;
19183;SDS011;9724;51.194;6.856;2023-02-11T10:59:33;85.60;;;29.97;;
19183;SDS011;9724;51.194;6.856;2023-02-11T11:02:03;94.87;;;31.30;;
19183;SDS011;9724;51.194;6.856;2023-02-11T11:04:39;80.50;;;29.53;;
19183;SDS011;9724;51.194;6.856;2023-02-11T11:07:18;80.27;;;28.37;;
19183;SDS011;9724;51.194;6.856;2023-02-11T11:09:47;72.93;;;28.47;;
19183;SDS011;9724;51.194;6.856;2023-02-11T11:12:23;85.60;;;29.33;;
19183;SDS011;9724;51.194;6.856;2023-02-11T11:14:52;88.80;;;31.50;;
19183;SDS011;9724;51.194;6.856;2023-02-11T11:17:19;80.27;;;29.10;;
19183;SDS011;9724;51.194;6.856;2023-02-11T11:19:46;78.47;;;28.63;;
19183;SDS011;9724;51.194;6.856;2023-02-11T11:22:18;77.27;;;29.00;;
19183;SDS011;9724;51.194;6.856;2023-02-11T11:24:46;86.80;;;30.03;;
19183;SDS011;9724;51.194;6.856;2023-02-11T11:27:19;76.70;;;28.17;;
19183;SDS011;9724;51.194;6.856;2023-02-11T11:29:48;79.03;;;27.83;;
19183;SDS011;9724;51.194;6.856;2023-02-11T11:32:17;86.27;;;29.17;;
19183;SDS011;9724;51.194;6.856;2023-02-11T11:34:47;75.03;;;28.40;;
19183;SDS011;9724;51.194;6.856;2023-02-11T11:37:18;82.60;;;28.33;;
19183;SDS011;9724;51.194;6.856;2023-02-11T11:39:48;82.13;;;28.33;;
19183;SDS011;9724;51.194;6.856;2023-02-11T11:42:24;88.87;;;28.73;;
19183;SDS011;9724;51.194;6.856;2023-02-11T11:44:55;81.30;;;27.50;;
19183;SDS011;9724;51.194;6.856;2023-02-11T11:47:24;73.57;;;28.27;;
19183;SDS011;9724;51.194;6.856;2023-02-11T11:49:56;79.93;;;29.67;;
19183;SDS011;9724;51.194;6.856;2023-02-11T11:52:40;84.53;;;28.87;;
19183;SDS011;9724;51.194;6.856;2023-02-11T11:55:13;74.37;;;28.63;;
19183;SDS011;9724;51.194;6.856;2023-02-11T11:57:42;84.80;;;29.40;;
19183;SDS011;9724;51.194;6.856;2023-02-11T12:00:12;78.97;;;29.23;;
19183;SDS011;9724;51.194;6.856;2023-02-11T12:02:48;73.67;;;28.93;;
19183;SDS011;9724;51.194;6.856;2023-02-11T12:05:34;83.57;;;28.77;;
19183;SDS011;9724;51.194;6.856;2023-02-11T12:08:07;78.00;;;28.77;;
19183;SDS011;9724;51.194;6.856;2023-02-11T12:10:42;74.57;;;28.23;;
19183;SDS011;9724;51.194;6.856;2023-02-11T12:13:21;80.40;;;29.40;;
19183;SDS011;9724;51.194;6.856;2023-02-11T12:15:55;76.87;;;29.20;;
19183;SDS011;9724;51.194;6.856;2023-02-11T12:18:29;82.23;;;29.67;;
19183;SDS011;9724;51.194;6.856;2023-02-11T12:21:07;76.13;;;28.83;;
19183;SDS011;9724;51.194;6.856;2023-02-11T12:23:41;75.13;;;28.30;;
19183;SDS011;9724;51.194;6.856;2023-02-11T12:26:16;71.33;;;29.43;;
19183;SDS011;9724;51.194;6.856;2023-02-11T12:28:50;71.00;;;28.60;;
19183;SDS011;9724;51.194;6.856;2023-02-11T12:31:26;75.17;;;29.43;;
19183;SDS011;9724;51.194;6.856;2023-02-11T12:34:11;76.77;;;28.70;;
19183;SDS011;9724;51.194;6.856;2023-02-11T12:36:55;73.60;;;28.70;;
19183;SDS011;9724;51.194;6.856;2023-02-11T12:39:31;69.20;;;28.20;;
19183;SDS011;9724;51.194;6.856;2023-02-11T12:45:14;74.30;;;29.93;;
19183;SDS011;9724;51.194;6.856;2023-02-11T12:47:50;86.50;;;30.23;;
19183;SDS011;9724;51.194;6.856;2023-02-11T12:50:26;76.23;;;29.30;;
19183;SDS011;9724;51.194;6.856;2023-02-11T12:53:01;81.20;;;30.03;;
19183;SDS011;9724;51.194;6.856;2023-02-11T12:55:34;74.13;;;28.97;;
19183;SDS011;9724;51.194;6.856;2023-02-11T12:58:02;72.40;;;29.80;;
19183;SDS011;9724;51.194;6.856;2023-02-11T13:00:30;76.53;;;29.03;;
19183;SDS011;9724;51.194;6.856;2023-02-11T13:03:05;74.70;;;29.23;;
19183;SDS011;9724;51.194;6.856;2023-02-11T13:05:36;75.63;;;28.80;;
19183;SDS011;9724;51.194;6.856;2023-02-11T13:08:04;80.27;;;29.83;;
19183;SDS011;9724;51.194;6.856;2023-02-11T13:10:35;73.00;;;29.47;;
19183;SDS011;9724;51.194;6.856;2023-02-11T13:13:04;69.63;;;29.00;;
19183;SDS011;9724;51.194;6.856;2023-02-11T13:15:41;78.83;;;29.57;;
19183;SDS011;9724;51.194;6.856;2023-02-11T13:18:11;67.87;;;28.83;;
19183;SDS011;9724;51.194;6.856;2023-02-11T13:20:46;86.10;;;30.97;;
19183;SDS011;9724;51.194;6.856;2023-02-11T13:23:18;74.13;;;28.33;;
19183;SDS011;9724;51.194;6.856;2023-02-11T13:25:49;84.20;;;29.63;;
19183;SDS011;9724;51.194;6.856;2023-02-11T13:28:22;71.93;;;30.40;;
19183;SDS011;9724;51.194;6.856;2023-02-11T13:30:53;81.47;;;30.27;;
19183;SDS011;9724;51.194;6.856;2023-02-11T13:33:31;79.03;;;29.90;;
19183;SDS011;9724;51.194;6.856;2023-02-11T13:36:14;74.93;;;29.47;;
19183;SDS011;9724;51.194;6.856;2023-02-11T13:38:51;82.10;;;30.43;;
19183;SDS011;9724;51.194;6.856;2023-02-11T13:41:21;72.63;;;30.70;;
19183;SDS011;9724;51.194;6.856;2023-02-11T13:43:56;83.27;;;30.30;;
19183;SDS011;9724;51.194;6.856;2023-02-11T13:46:23;77.50;;;30.10;;
19183;SDS011;9724;51.194;6.856;2023-02-11T13:48:51;73.53;;;31.17;;
19183;SDS011;9724;51.194;6.856;2023-02-11T13:51:31;76.80;;;29.90;;
19183;SDS011;9724;51.194;6.856;2023-02-11T13:54:00;79.00;;;29.30;;
19183;SDS011;9724;51.194;6.856;2023-02-11T13:56:27;83.73;;;29.23;;
19183;SDS011;9724;51.194;6.856;2023-02-11T13:58:55;78.63;;;30.07;;
19183;SDS011;9724;51.194;6.856;2023-02-11T14:01:37;72.83;;;30.50;;
19183;SDS011;9724;51.194;6.856;2023-02-11T14:04:12;84.27;;;31.40;;
19183;SDS011;9724;51.194;6.856;2023-02-11T14:07:24;79.83;;;29.30;;
19183;SDS011;9724;51.194;6.856;2023-02-11T14:13:18;84.67;;;29.57;;
19183;SDS011;9724;51.194;6.856;2023-02-11T14:15:48;75.73;;;30.53;;
19183;SDS011;9724;51.194;6.856;2023-02-11T14:18:38;80.37;;;29.30;;
19183;SDS011;9724;51.194;6.856;2023-02-11T14:21:29;70.93;;;29.23;;
19183;SDS011;9724;51.194;6.856;2023-02-11T14:26:58;81.97;;;31.27;;
19183;SDS011;9724;51.194;6.856;2023-02-11T14:29:27;83.80;;;30.10;;
19183;SDS011;9724;51.194;6.856;2023-02-11T14:32:00;77.90;;;30.03;;
19183;SDS011;9724;51.194;6.856;2023-02-11T14:34:43;72.63;;;30.57;;
19183;SDS011;9724;51.194;6.856;2023-02-11T14:37:20;73.10;;;29.50;;
19183;SDS011;9724;51.194;6.856;2023-02-11T14:39:56;76.87;;;30.93;;
19183;SDS011;9724;51.194;6.856;2023-02-11T14:42:25;79.40;;;30.63;;
19183;SDS011;9724;51.194;6.856;2023-02-11T14:44:54;86.20;;;31.13;;
19183;SDS011;9724;51.194;6.856;2023-02-11T14:47:23;76.30;;;31.43;;
19183;SDS011;9724;51.194;6.856;2023-02-11T14:49:53;72.77;;;29.37;;
19183;SDS011;9724;51.194;6.856;2023-02-11T14:52:22;74.27;;;31.07;;
19183;SDS011;9724;51.194;6.856;2023-02-11T14:54:51;79.97;;;30.60;;
19183;SDS011;9724;51.194;6.856;2023-02-11T14:57:40;75.73;;;30.57;;
19183;SDS011;9724;51.194;6.856;2023-02-11T15:00:13;76.17;;;30.90;;
19183;SDS011;9724;51.194;6.856;2023-02-11T15:02:43;78.67;;;29.90;;